createdAt,value
2023-05-07T00:00:54.456Z,0.60
2023-05-07T00:03:04.018Z,0.70
2023-05-07T00:05:14.353Z,0.70
2023-05-07T00:07:27.243Z,0.80
2023-05-07T00:09:36.850Z,0.80
2023-05-07T00:11:56.109Z,0.70
2023-05-07T00:14:05.887Z,0.70
2023-05-07T00:16:22.900Z,0.80
2023-05-07T00:18:32.328Z,0.70
2023-05-07T00:21:02.246Z,1.00
2023-05-07T00:23:11.989Z,0.70
2023-05-07T00:25:21.917Z,0.80
2023-05-07T00:27:31.240Z,0.60
2023-05-07T00:29:40.505Z,0.70
2023-05-07T00:31:51.711Z,0.90
2023-05-07T00:34:00.982Z,0.50
2023-05-07T00:36:11.448Z,0.60
2023-05-07T00:38:20.716Z,0.70
2023-05-07T00:40:30.224Z,0.80
2023-05-07T00:42:43.143Z,0.70
2023-05-07T00:44:53.299Z,0.70
2023-05-07T00:47:04.802Z,0.60
2023-05-07T00:49:17.514Z,0.80
2023-05-07T00:51:29.277Z,1.00
2023-05-07T00:53:38.947Z,1.00
2023-05-07T00:55:48.506Z,0.70
2023-05-07T00:57:58.270Z,0.80
2023-05-07T01:00:27.794Z,0.70
2023-05-07T01:02:37.736Z,0.90
2023-05-07T01:04:50.516Z,0.80
2023-05-07T01:07:02.233Z,1.10
2023-05-07T01:11:20.765Z,0.90
2023-05-07T01:13:30.516Z,1.10
2023-05-07T01:15:42.128Z,1.10
2023-05-07T01:17:51.903Z,1.20
2023-05-07T01:20:08.413Z,1.00
2023-05-07T01:22:22.899Z,1.30
2023-05-07T01:24:42.204Z,1.20
2023-05-07T01:26:51.496Z,1.10
2023-05-07T01:29:04.488Z,1.40
2023-05-07T01:31:25.177Z,1.50
2023-05-07T01:33:37.760Z,1.50
2023-05-07T01:35:50.632Z,1.40
2023-05-07T01:38:00.145Z,1.40
2023-05-07T01:40:14.349Z,1.50
2023-05-07T01:42:35.194Z,1.00
2023-05-07T01:44:48.627Z,1.40
2023-05-07T01:46:59.564Z,1.40
2023-05-07T01:49:09.075Z,1.10
2023-05-07T01:51:18.940Z,1.40
2023-05-07T01:53:29.663Z,1.20
2023-05-07T01:55:39.252Z,1.20
2023-05-07T01:57:48.475Z,1.30
2023-05-07T01:59:57.684Z,1.60
2023-05-07T02:02:18.149Z,1.80
2023-05-07T02:04:28.300Z,1.10
2023-05-07T02:06:41.356Z,1.30
2023-05-07T02:08:52.392Z,1.50
2023-05-07T02:11:01.956Z,1.60
2023-05-07T02:13:12.314Z,1.40
2023-05-07T02:15:25.427Z,1.40
2023-05-07T02:17:35.589Z,1.20
2023-05-07T02:19:48.158Z,1.70
2023-05-07T02:21:57.486Z,1.50
2023-05-07T02:24:13.060Z,2.40
2023-05-07T02:26:24.019Z,2.20
2023-05-07T02:28:33.319Z,2.20
2023-05-07T02:30:49.284Z,1.80
2023-05-07T02:32:58.947Z,1.70
2023-05-07T02:35:10.063Z,2.20
2023-05-07T02:37:39.742Z,2.00
2023-05-07T02:39:49.183Z,2.00
2023-05-07T02:41:58.359Z,1.60
2023-05-07T02:44:08.072Z,1.60
2023-05-07T02:46:18.457Z,1.30
2023-05-07T02:48:31.996Z,1.90
2023-05-07T02:50:41.418Z,1.10
2023-05-07T02:53:00.975Z,1.40
2023-05-07T02:55:22.283Z,1.10
2023-05-07T02:57:31.932Z,1.20
2023-05-07T02:59:41.448Z,1.90
2023-05-07T03:01:50.756Z,1.40
2023-05-07T03:04:00.023Z,1.50
2023-05-07T03:06:10.228Z,1.30
2023-05-07T03:08:19.946Z,1.20
2023-05-07T03:10:32.555Z,1.30
2023-05-07T03:12:42.088Z,1.10
2023-05-07T03:14:51.713Z,1.60
2023-05-07T03:17:01.015Z,1.20
2023-05-07T03:19:14.133Z,0.90
2023-05-07T03:21:23.574Z,1.20
2023-05-07T03:23:35.631Z,1.20
2023-05-07T03:25:45.086Z,1.40
2023-05-07T03:27:54.586Z,1.40
2023-05-07T03:30:05.638Z,1.30
2023-05-07T03:32:15.729Z,1.80
2023-05-07T03:34:25.244Z,1.40
2023-05-07T03:36:38.359Z,1.60
2023-05-07T03:38:51.333Z,1.20
2023-05-07T03:41:03.500Z,1.60
2023-05-07T03:43:13.432Z,1.40
2023-05-07T03:45:27.918Z,1.60
2023-05-07T03:47:44.421Z,1.50
2023-05-07T03:49:56.262Z,1.30
2023-05-07T03:52:06.820Z,1.40
2023-05-07T03:54:16.779Z,1.10
2023-05-07T03:56:29.700Z,1.10
2023-05-07T03:58:42.569Z,1.50
2023-05-07T04:00:55.167Z,1.40
2023-05-07T04:03:07.315Z,1.40
2023-05-07T04:05:17.532Z,1.50
2023-05-07T04:07:28.188Z,1.50
2023-05-07T04:09:37.683Z,1.50
2023-05-07T04:11:46.933Z,1.30
2023-05-07T04:13:59.094Z,1.30
2023-05-07T04:16:19.748Z,1.50
2023-05-07T04:18:29.309Z,1.60
2023-05-07T04:20:42.813Z,1.90
2023-05-07T04:22:53.504Z,1.30
2023-05-07T04:25:02.866Z,1.30
2023-05-07T04:27:13.650Z,1.50
2023-05-07T04:29:26.974Z,1.20
2023-05-07T04:31:36.796Z,1.40
2023-05-07T04:33:49.659Z,1.50
2023-05-07T04:35:59.076Z,1.10
2023-05-07T04:38:08.599Z,1.10
2023-05-07T04:40:18.974Z,1.10
2023-05-07T04:42:28.552Z,1.20
2023-05-07T04:44:38.603Z,0.90
2023-05-07T04:46:51.161Z,1.10
2023-05-07T04:49:00.737Z,1.20
2023-05-07T04:51:11.048Z,1.10
2023-05-07T04:53:20.720Z,1.10
2023-05-07T04:55:30.611Z,1.00
2023-05-07T04:57:40.990Z,0.80
2023-05-07T04:59:50.597Z,1.00
2023-05-07T05:02:00.013Z,1.10
2023-05-07T05:04:10.097Z,1.30
2023-05-07T05:06:19.544Z,1.00
2023-05-07T05:08:29.056Z,0.80
2023-05-07T05:10:43.035Z,1.30
2023-05-07T05:12:53.151Z,1.30
2023-05-07T05:15:23.212Z,1.10
2023-05-07T05:17:32.452Z,1.10
2023-05-07T05:19:45.260Z,1.30
2023-05-07T05:21:54.912Z,1.20
2023-05-07T05:24:12.752Z,1.10
2023-05-07T05:26:32.273Z,1.20
2023-05-07T05:28:41.784Z,1.10
2023-05-07T05:30:51.178Z,1.20
2023-05-07T05:33:11.088Z,1.40
2023-05-07T05:35:20.704Z,1.10
2023-05-07T05:37:31.577Z,1.40
2023-05-07T05:39:41.750Z,1.60
2023-05-07T05:41:51.292Z,1.60
2023-05-07T05:44:00.704Z,1.10
2023-05-07T05:46:21.372Z,1.40
2023-05-07T05:48:33.462Z,1.20
2023-05-07T05:50:44.670Z,1.40
2023-05-07T05:53:00.478Z,1.20
2023-05-07T05:55:29.829Z,1.40
2023-05-07T05:57:39.456Z,1.30
2023-05-07T05:59:49.167Z,1.40
2023-05-07T06:01:58.479Z,1.30
2023-05-07T06:04:08.339Z,1.70
2023-05-07T06:06:17.986Z,1.00
2023-05-07T06:08:27.433Z,1.20
2023-05-07T06:10:38.299Z,0.60
2023-05-07T06:12:48.481Z,0.80
2023-05-07T06:15:00.980Z,0.90
2023-05-07T06:17:10.865Z,0.70
2023-05-07T06:19:24.480Z,0.80
2023-05-07T06:21:34.417Z,0.60
2023-05-07T06:23:44.305Z,0.60
2023-05-07T06:25:54.833Z,0.80
2023-05-07T06:28:07.010Z,0.60
2023-05-07T06:30:18.861Z,0.60
2023-05-07T06:32:28.828Z,0.80
2023-05-07T06:34:38.341Z,0.60
2023-05-07T06:36:47.743Z,0.80
2023-05-07T06:39:14.929Z,0.60
2023-05-07T06:41:34.469Z,0.70
2023-05-07T06:43:49.719Z,0.70
2023-05-07T06:46:28.031Z,0.70
2023-05-07T06:48:37.433Z,0.60
2023-05-07T06:51:07.040Z,0.80
2023-05-07T06:53:16.423Z,0.90
2023-05-07T06:55:26.323Z,0.80
2023-05-07T06:57:35.693Z,0.90
2023-05-07T06:59:45.345Z,0.90
2023-05-07T07:02:04.818Z,0.80
2023-05-07T07:04:18.261Z,0.80
2023-05-07T07:06:33.211Z,0.90
2023-05-07T07:10:50.605Z,1.00
2023-05-07T07:13:03.195Z,0.60
2023-05-07T07:15:16.250Z,0.60
2023-05-07T07:17:26.175Z,0.60
2023-05-07T07:19:37.401Z,0.70
2023-05-07T07:22:06.575Z,0.50
2023-05-07T07:24:22.598Z,0.70
2023-05-07T07:26:35.851Z,0.50
2023-05-07T07:28:56.624Z,0.50
2023-05-07T07:31:17.779Z,0.60
2023-05-07T07:33:27.710Z,0.60
2023-05-07T07:35:37.045Z,0.90
2023-05-07T07:37:47.612Z,0.90
2023-05-07T07:39:57.766Z,0.60
2023-05-07T07:42:07.970Z,0.60
2023-05-07T07:44:17.390Z,0.70
2023-05-07T07:46:30.886Z,0.60
2023-05-07T07:48:41.322Z,0.50
2023-05-07T07:50:53.571Z,0.60
2023-05-07T07:53:12.877Z,0.50
2023-05-07T07:55:25.669Z,0.50
2023-05-07T07:57:35.797Z,0.90
2023-05-07T07:59:45.651Z,0.80
2023-05-07T08:01:58.249Z,0.30
2023-05-07T08:04:09.442Z,0.40
2023-05-07T08:08:29.110Z,0.60
2023-05-07T08:10:40.528Z,0.50
2023-05-07T08:12:58.557Z,0.60
2023-05-07T08:15:27.951Z,0.60
2023-05-07T08:17:37.730Z,0.50
2023-05-07T08:19:50.929Z,0.50
2023-05-07T08:22:00.302Z,0.60
2023-05-07T08:24:10.391Z,0.60
2023-05-07T08:26:22.914Z,0.40
2023-05-07T08:28:42.874Z,0.50
2023-05-07T08:30:52.370Z,0.50
2023-05-07T08:33:05.031Z,0.50
2023-05-07T08:35:15.145Z,0.60
2023-05-07T08:37:24.868Z,0.50
2023-05-07T08:39:34.231Z,0.50
2023-05-07T08:41:45.492Z,0.90
2023-05-07T08:43:58.166Z,0.80
2023-05-07T08:46:10.217Z,0.50
2023-05-07T08:48:32.238Z,0.70
2023-05-07T08:50:50.593Z,0.90
2023-05-07T08:53:01.458Z,0.60
2023-05-07T08:55:15.811Z,0.90
2023-05-07T08:57:25.994Z,0.60
2023-05-07T08:59:38.172Z,0.60
2023-05-07T09:01:48.045Z,0.80
2023-05-07T09:03:58.019Z,0.50
2023-05-07T09:06:18.206Z,0.70
2023-05-07T09:08:29.746Z,0.70
2023-05-07T09:10:41.999Z,0.50
2023-05-07T09:12:53.538Z,0.90
2023-05-07T09:15:04.198Z,0.70
2023-05-07T09:17:14.101Z,0.70
2023-05-07T09:19:32.969Z,0.70
2023-05-07T09:21:43.915Z,0.80
2023-05-07T09:23:57.957Z,0.80
2023-05-07T09:26:14.410Z,0.80
2023-05-07T09:28:35.517Z,0.70
2023-05-07T09:30:45.688Z,0.70
2023-05-07T09:32:56.264Z,0.70
2023-05-07T09:35:06.649Z,0.90
2023-05-07T09:37:19.022Z,0.90
2023-05-07T09:39:28.850Z,0.70
2023-05-07T09:41:45.960Z,1.00
2023-05-07T09:44:04.504Z,0.90
2023-05-07T09:46:21.682Z,1.10
2023-05-07T09:48:34.954Z,0.70
2023-05-07T09:50:51.217Z,0.90
2023-05-07T09:53:02.603Z,0.70
2023-05-07T09:55:14.371Z,0.80
2023-05-07T09:57:26.628Z,0.90
2023-05-07T09:59:40.216Z,1.00
2023-05-07T10:02:12.538Z,1.20
2023-05-07T10:04:28.420Z,0.90
2023-05-07T10:06:37.825Z,1.00
2023-05-07T10:08:48.132Z,1.00
2023-05-07T10:10:57.348Z,1.10
2023-05-07T10:13:12.062Z,1.10
2023-05-07T10:15:25.948Z,0.80
2023-05-07T10:17:38.126Z,0.90
2023-05-07T10:19:49.352Z,1.00
2023-05-07T10:22:04.677Z,1.00
2023-05-07T10:24:22.228Z,1.00
2023-05-07T10:26:33.789Z,0.60
2023-05-07T10:28:46.270Z,0.80
2023-05-07T10:31:07.995Z,0.80
2023-05-07T10:33:27.274Z,0.80
2023-05-07T10:35:41.937Z,0.70
2023-05-07T10:37:52.112Z,0.70
2023-05-07T10:40:01.762Z,0.80
2023-05-07T10:42:15.985Z,0.90
2023-05-07T10:44:33.030Z,0.80
2023-05-07T10:47:06.531Z,0.60
2023-05-07T10:49:16.550Z,0.90
2023-05-07T10:51:48.298Z,0.70
2023-05-07T10:54:28.063Z,0.80
2023-05-07T10:56:44.357Z,0.90
2023-05-07T10:59:46.582Z,1.00
2023-05-07T11:02:01.022Z,0.70
2023-05-07T11:04:25.876Z,0.60
2023-05-07T11:07:06.744Z,1.30
2023-05-07T11:09:20.334Z,1.10
2023-05-07T11:11:52.672Z,1.20
2023-05-07T11:14:10.539Z,1.10
2023-05-07T11:16:38.230Z,0.80
2023-05-07T11:19:13.503Z,1.40
2023-05-07T11:21:39.748Z,1.00
2023-05-07T11:24:13.801Z,1.10
2023-05-07T11:26:46.683Z,0.90
2023-05-07T11:28:57.267Z,1.10
2023-05-07T11:31:07.983Z,1.00
2023-05-07T11:33:22.063Z,1.30
2023-05-07T11:35:35.591Z,0.90
2023-05-07T11:37:47.807Z,1.00
2023-05-07T11:40:07.960Z,1.20
2023-05-07T11:42:30.960Z,1.30
2023-05-07T11:44:50.863Z,1.20
2023-05-07T11:47:01.294Z,1.20
2023-05-07T11:49:11.508Z,1.10
2023-05-07T11:51:23.877Z,1.20
2023-05-07T11:53:39.682Z,1.30
2023-05-07T11:55:48.920Z,1.40
2023-05-07T11:57:58.183Z,1.20
2023-05-07T12:00:09.738Z,1.30
2023-05-07T12:02:26.496Z,1.30
2023-05-07T12:04:36.458Z,1.40
2023-05-07T12:06:46.181Z,1.20
2023-05-07T12:08:56.057Z,1.50
2023-05-07T12:11:05.086Z,1.00
2023-05-07T12:13:21.063Z,0.90
2023-05-07T12:15:30.390Z,1.30
2023-05-07T12:17:39.890Z,1.50
2023-05-07T12:19:49.806Z,1.20
2023-05-07T12:21:59.790Z,1.50
2023-05-07T12:24:10.779Z,1.30
2023-05-07T12:26:22.326Z,2.60
2023-05-07T12:28:33.291Z,1.40
2023-05-07T12:30:44.758Z,1.70
2023-05-07T12:32:57.340Z,1.60
2023-05-07T12:35:08.587Z,1.50
2023-05-07T12:37:18.204Z,1.40
2023-05-07T12:39:27.620Z,1.60
2023-05-07T12:41:55.073Z,1.70
2023-05-07T12:44:06.956Z,1.70
2023-05-07T12:46:18.512Z,1.50
2023-05-07T12:48:28.340Z,1.40
2023-05-07T12:50:37.984Z,1.50
2023-05-07T12:52:48.514Z,1.50
2023-05-07T12:54:57.962Z,1.40
2023-05-07T12:57:10.283Z,1.50
2023-05-07T12:59:19.304Z,1.60
2023-05-07T13:01:34.003Z,1.30
2023-05-07T13:03:43.525Z,1.70
2023-05-07T13:05:53.022Z,1.70
2023-05-07T13:08:02.596Z,1.80
2023-05-07T13:10:13.499Z,1.70
2023-05-07T13:12:23.105Z,1.50
2023-05-07T13:14:32.394Z,1.40
2023-05-07T13:16:42.321Z,1.40
2023-05-07T13:18:51.841Z,1.50
2023-05-07T13:21:01.624Z,1.40
2023-05-07T13:23:10.952Z,1.50
2023-05-07T13:25:20.196Z,1.60
2023-05-07T13:27:29.426Z,1.50
2023-05-07T13:29:38.531Z,1.80
2023-05-07T13:31:48.448Z,1.70
2023-05-07T13:33:59.008Z,1.80
2023-05-07T13:36:09.108Z,1.60
2023-05-07T13:38:19.224Z,1.50
2023-05-07T13:40:28.970Z,1.60
2023-05-07T13:42:38.032Z,1.50
2023-05-07T13:44:47.635Z,2.00
2023-05-07T13:46:56.930Z,1.70
2023-05-07T13:49:05.960Z,1.80
2023-05-07T13:51:15.124Z,2.70
2023-05-07T13:53:24.549Z,1.50
2023-05-07T13:55:34.366Z,1.80
2023-05-07T13:57:43.316Z,1.80
2023-05-07T13:59:52.687Z,1.90
2023-05-07T14:02:01.795Z,1.60
2023-05-07T14:04:11.133Z,1.90
2023-05-07T14:06:20.205Z,1.80
2023-05-07T14:08:31.706Z,1.90
2023-05-07T14:10:41.348Z,1.70
2023-05-07T14:12:50.848Z,1.70
2023-05-07T14:15:00.225Z,1.40
2023-05-07T14:17:09.717Z,1.30
2023-05-07T14:19:18.919Z,1.50
2023-05-07T14:21:29.138Z,2.00
2023-05-07T14:23:38.653Z,1.70
2023-05-07T14:25:48.947Z,1.80
2023-05-07T14:27:58.462Z,1.80
2023-05-07T14:30:08.284Z,1.70
2023-05-07T14:32:17.542Z,1.60
2023-05-07T14:34:26.648Z,1.40
2023-05-07T14:36:35.874Z,1.50
2023-05-07T14:38:45.348Z,1.60
2023-05-07T14:40:57.111Z,1.80
2023-05-07T14:43:06.238Z,1.80
2023-05-07T14:45:16.014Z,1.70
2023-05-07T14:47:25.346Z,1.60
2023-05-07T14:49:35.080Z,1.70
2023-05-07T14:51:44.369Z,1.70
2023-05-07T14:53:53.971Z,1.90
2023-05-07T14:56:03.115Z,1.70
2023-05-07T14:58:13.032Z,1.90
2023-05-07T15:00:23.274Z,1.70
2023-05-07T15:02:32.695Z,1.80
2023-05-07T15:04:47.169Z,1.80
2023-05-07T15:06:57.410Z,1.50
2023-05-07T15:09:07.333Z,2.00
2023-05-07T15:11:16.409Z,1.50
2023-05-07T15:13:25.886Z,1.60
2023-05-07T15:15:35.103Z,1.50
2023-05-07T15:17:44.784Z,1.60
2023-05-07T15:19:55.068Z,1.60
2023-05-07T15:22:04.675Z,1.30
2023-05-07T15:24:14.277Z,1.60
2023-05-07T15:26:24.739Z,1.60
2023-05-07T15:28:34.124Z,1.50
2023-05-07T15:30:43.548Z,1.10
2023-05-07T15:32:54.820Z,1.70
2023-05-07T15:35:04.040Z,1.50
2023-05-07T15:37:13.198Z,1.60
2023-05-07T15:39:24.836Z,1.80
2023-05-07T15:41:34.392Z,1.40
2023-05-07T15:43:50.888Z,1.30
2023-05-07T15:46:01.551Z,1.60
2023-05-07T15:48:11.068Z,1.50
2023-05-07T15:50:20.286Z,1.40
2023-05-07T15:52:29.905Z,1.50
2023-05-07T15:54:40.748Z,1.50
2023-05-07T15:56:49.876Z,1.80
2023-05-07T15:58:59.368Z,1.70
2023-05-07T16:01:08.778Z,1.50
2023-05-07T16:03:19.255Z,1.40
2023-05-07T16:05:28.693Z,1.40
2023-05-07T16:07:37.893Z,1.10
2023-05-07T16:09:47.706Z,2.00
2023-05-07T16:11:56.920Z,1.30
2023-05-07T16:14:06.085Z,1.20
2023-05-07T16:16:15.343Z,1.40
2023-05-07T16:18:24.689Z,1.20
2023-05-07T16:20:34.159Z,1.50
2023-05-07T16:22:43.391Z,1.10
2023-05-07T16:24:52.517Z,1.60
2023-05-07T16:27:01.854Z,1.10
2023-05-07T16:29:11.468Z,1.50
2023-05-07T16:31:20.678Z,1.30
2023-05-07T16:33:30.101Z,1.30
2023-05-07T16:35:39.288Z,1.10
2023-05-07T16:37:48.558Z,1.10
2023-05-07T16:40:00.049Z,1.60
2023-05-07T16:42:09.829Z,1.50
2023-05-07T16:44:19.089Z,1.50
2023-05-07T16:46:28.585Z,1.20
2023-05-07T16:48:37.724Z,1.40
2023-05-07T16:50:46.996Z,1.00
2023-05-07T16:52:56.246Z,1.10
2023-05-07T16:55:05.426Z,1.00
2023-05-07T16:57:14.524Z,1.20
2023-05-07T16:59:24.074Z,1.20
2023-05-07T17:01:33.655Z,1.30
2023-05-07T17:03:42.969Z,1.10
2023-05-07T17:05:52.251Z,1.00
2023-05-07T17:08:01.751Z,1.10
2023-05-07T17:10:12.893Z,0.90
2023-05-07T17:12:22.041Z,1.00
2023-05-07T17:14:31.516Z,1.20
2023-05-07T17:16:40.942Z,0.70
2023-05-07T17:18:50.035Z,1.20
2023-05-07T17:20:59.361Z,0.90
2023-05-07T17:23:08.590Z,1.00
2023-05-07T17:25:17.847Z,1.00
2023-05-07T17:27:27.145Z,1.10
2023-05-07T17:29:36.119Z,1.10
2023-05-07T17:31:45.315Z,0.80
2023-05-07T17:33:54.467Z,1.00
2023-05-07T17:36:04.616Z,1.00
2023-05-07T17:38:14.071Z,0.80
2023-05-07T17:40:24.328Z,0.70
2023-05-07T17:42:33.564Z,0.90
2023-05-07T17:44:42.628Z,1.00
2023-05-07T17:46:51.697Z,1.00
2023-05-07T17:49:00.910Z,0.90
2023-05-07T17:51:10.028Z,0.80
2023-05-07T17:53:19.316Z,0.80
2023-05-07T17:55:28.775Z,0.90
2023-05-07T17:57:38.091Z,1.10
2023-05-07T17:59:47.176Z,0.70
2023-05-07T18:01:56.644Z,0.70
2023-05-07T18:04:06.501Z,0.90
2023-05-07T18:06:19.287Z,0.80
2023-05-07T18:08:28.659Z,0.90
2023-05-07T18:10:37.192Z,0.70
2023-05-07T18:12:46.366Z,0.70
2023-05-07T18:14:55.626Z,0.70
2023-05-07T18:17:04.905Z,0.90
2023-05-07T18:19:14.284Z,1.10
2023-05-07T18:21:23.454Z,0.80
2023-05-07T18:23:34.140Z,0.70
2023-05-07T18:25:43.392Z,0.70
2023-05-07T18:27:52.501Z,0.80
2023-05-07T18:30:01.611Z,1.10
2023-05-07T18:32:11.176Z,0.90
2023-05-07T18:34:20.428Z,0.80
2023-05-07T18:36:29.858Z,0.90
2023-05-07T18:38:39.223Z,0.80
2023-05-07T18:40:48.921Z,1.00
2023-05-07T18:42:58.424Z,0.70
2023-05-07T18:45:08.468Z,1.00
2023-05-07T18:47:17.751Z,1.10
2023-05-07T18:49:26.788Z,1.10
2023-05-07T18:51:36.127Z,0.90
2023-05-07T18:53:45.305Z,0.80
2023-05-07T18:55:55.064Z,1.80
2023-05-07T18:58:04.218Z,1.30
2023-05-07T19:00:15.515Z,0.90
2023-05-07T19:02:25.088Z,0.70
2023-05-07T19:04:34.760Z,0.80
2023-05-07T19:06:43.934Z,0.90
2023-05-07T19:08:53.496Z,0.90
2023-05-07T19:11:03.784Z,0.70
2023-05-07T19:13:13.168Z,1.00
2023-05-07T19:15:23.679Z,1.00
2023-05-07T19:17:33.062Z,0.90
2023-05-07T19:19:42.281Z,1.20
2023-05-07T19:21:51.680Z,0.90
2023-05-07T19:24:01.281Z,0.70
2023-05-07T19:26:10.854Z,0.70
2023-05-07T19:28:20.202Z,0.90
2023-05-07T19:30:29.860Z,0.70
2023-05-07T19:32:39.170Z,0.80
2023-05-07T19:34:48.429Z,0.80
2023-05-07T19:36:57.577Z,0.60
2023-05-07T19:39:07.182Z,0.70
2023-05-07T19:41:16.812Z,0.90
2023-05-07T19:43:26.027Z,0.90
2023-05-07T19:45:35.548Z,1.00
2023-05-07T19:47:44.912Z,0.70
2023-05-07T19:49:54.094Z,0.90
2023-05-07T19:52:03.573Z,0.60
2023-05-07T19:54:12.774Z,1.50
2023-05-07T19:56:22.676Z,0.70
2023-05-07T19:58:32.240Z,1.00
2023-05-07T20:00:43.171Z,0.70
2023-05-07T20:02:52.629Z,0.60
2023-05-07T20:05:02.217Z,0.60
2023-05-07T20:07:11.412Z,0.80
2023-05-07T20:09:20.490Z,0.50
2023-05-07T20:11:30.463Z,0.60
2023-05-07T20:13:39.736Z,0.70
2023-05-07T20:15:49.065Z,1.00
2023-05-07T20:17:58.339Z,1.10
2023-05-07T20:20:09.790Z,0.60
2023-05-07T20:22:19.090Z,0.70
2023-05-07T20:24:28.393Z,0.60
2023-05-07T20:26:37.127Z,0.50
2023-05-07T20:28:46.797Z,0.80
2023-05-07T20:30:56.044Z,0.70
2023-05-07T20:33:05.790Z,0.70
2023-05-07T20:35:15.581Z,0.70
2023-05-07T20:37:25.683Z,0.70
2023-05-07T20:39:35.173Z,0.50
2023-05-07T20:41:45.273Z,0.60
2023-05-07T20:43:54.545Z,0.70
2023-05-07T20:46:08.031Z,0.60
2023-05-07T20:48:17.405Z,0.70
2023-05-07T20:50:28.305Z,1.00
2023-05-07T20:52:37.728Z,0.80
2023-05-07T20:54:47.746Z,1.10
2023-05-07T20:56:58.251Z,0.80
2023-05-07T20:59:07.664Z,1.00
2023-05-07T21:01:16.830Z,1.00
2023-05-07T21:03:26.301Z,0.60
2023-05-07T21:05:35.843Z,0.60
2023-05-07T21:07:45.017Z,0.70
2023-05-07T21:09:54.211Z,0.50
2023-05-07T21:12:04.477Z,0.50
2023-05-07T21:14:13.694Z,0.90
2023-05-07T21:16:23.229Z,0.80
2023-05-07T21:18:32.553Z,0.80
2023-05-07T21:20:41.914Z,0.80
2023-05-07T21:22:50.996Z,0.70
2023-05-07T21:25:00.162Z,0.80
2023-05-07T21:27:09.646Z,0.90
2023-05-07T21:29:18.830Z,0.60
2023-05-07T21:31:28.420Z,0.70
2023-05-07T21:33:38.470Z,0.90
2023-05-07T21:35:47.693Z,0.80
2023-05-07T21:37:56.828Z,1.00
2023-05-07T21:40:06.372Z,1.10
2023-05-07T21:42:15.869Z,1.70
2023-05-07T21:44:25.238Z,0.80
2023-05-07T21:46:35.034Z,0.90
2023-05-07T21:48:44.261Z,0.90
2023-05-07T21:51:03.781Z,0.90
2023-05-07T21:53:12.960Z,0.80
2023-05-07T21:55:22.798Z,0.90
2023-05-07T21:57:32.002Z,0.70
2023-05-07T21:59:41.155Z,1.00
2023-05-07T22:01:50.203Z,0.80
2023-05-07T22:03:59.511Z,0.80
2023-05-07T22:06:09.617Z,0.90
2023-05-07T22:08:18.874Z,0.70
2023-05-07T22:10:28.305Z,0.80
2023-05-07T22:12:37.964Z,1.00
2023-05-07T22:14:47.624Z,0.80
2023-05-07T22:16:56.817Z,0.70
2023-05-07T22:19:06.708Z,0.70
2023-05-07T22:21:15.960Z,0.80
2023-05-07T22:23:25.121Z,0.90
2023-05-07T22:25:36.661Z,1.00
2023-05-07T22:27:46.706Z,0.80
2023-05-07T22:29:57.457Z,0.90
2023-05-07T22:32:07.145Z,0.70
2023-05-07T22:34:16.365Z,0.70
2023-05-07T22:36:25.534Z,0.70
2023-05-07T22:38:35.228Z,1.20
2023-05-07T22:40:44.615Z,1.50
2023-05-07T22:42:54.073Z,1.40
2023-05-07T22:45:03.699Z,0.90
2023-05-07T22:47:12.819Z,0.80
2023-05-07T22:49:22.021Z,0.90
2023-05-07T22:51:31.137Z,1.00
2023-05-07T22:53:40.498Z,1.00
2023-05-07T22:55:49.686Z,1.00
2023-05-07T22:57:58.997Z,0.90
2023-05-07T23:00:10.242Z,0.90
2023-05-07T23:02:19.633Z,0.80
2023-05-07T23:04:28.814Z,0.80
2023-05-07T23:06:38.160Z,1.10
2023-05-07T23:08:47.464Z,1.00
2023-05-07T23:10:56.576Z,1.20
2023-05-07T23:13:06.708Z,1.10
2023-05-07T23:15:16.836Z,0.90
2023-05-07T23:17:26.112Z,0.90
2023-05-07T23:19:36.147Z,0.70
2023-05-07T23:21:45.335Z,1.00
2023-05-07T23:23:54.507Z,1.10
2023-05-07T23:26:03.759Z,0.80
2023-05-07T23:28:12.878Z,1.20
2023-05-07T23:30:22.320Z,0.90
2023-05-07T23:32:32.262Z,0.90
2023-05-07T23:34:41.690Z,0.90
2023-05-07T23:36:51.124Z,1.00
2023-05-07T23:39:00.293Z,1.30
2023-05-07T23:41:09.744Z,1.00
2023-05-07T23:43:20.116Z,0.90
2023-05-07T23:45:29.268Z,1.10
2023-05-07T23:47:41.418Z,1.10
2023-05-07T23:49:50.686Z,1.20
2023-05-07T23:51:59.905Z,1.10
2023-05-07T23:54:09.378Z,1.30
2023-05-07T23:56:18.882Z,1.10
2023-05-07T23:58:28.156Z,0.90
